Apple Creek, Ohio
Current Conditions -  °F | °C
As of 10:03 AM on Tuesday 21 Oct 2014 (Local Time) from KBJJ Reporting Station
Overcast Overcast  
Wind Chill: 50°   Ceiling: 1100
Heat Index: 50°   Visibility: 9mi
Dew Point: 46°   Wind: 9mph
Humidity: 86%   Direction: 340°NNW
Pressure: 29.93"   Gusts: NA
Location:  40.75°N, 81.84°W
Report Text: KBJJ 211403Z AUTO 34008KT 9SM BKN011 BKN028 OVC043 10/08 A2993 RMK AO2 T01000078 TSNO
Loading
Personal Weather Stations






























Interactive Weather Map
Tropical Storm Tracking
New forecast layout! Learn more

10-Day Weather Forecast

Advertisements
Track Severe Weather on mobile